Flight Track Log - Related Links

Times and Time Zones

All times are in EDT time to prevent confusion due to time zone crossing. See the SWA1044 flight status page for this flight to view local times or setup timezone preferences in your user account.

Time Position Orientation Groundspeed Altitude Reporting Facility
EDT Latitude Longitude Course Direction KTS MPH feet Rate Location/Type
Sat 03:04:15 PM 44.8339 -93.2333 211° Southwest 158 182 2,800  Level Minneapolis Center
Sat 03:05:17 PM 44.7886 -93.2714 211° Southwest 198 228 4,600 1,742 Climbing Minneapolis Center
Sat 03:06:19 PM 44.7189 -93.3308 211° Southwest 254 292 6,400 2,274 Climbing Minneapolis Center
Sat 03:07:21 PM 44.6600 -93.3900 216° Southwest 264 304 9,300 2,516 Climbing Minneapolis Center
Sat 03:08:23 PM 44.5917 -93.4572 215° Southwest 312 359 11,600 2,419 Climbing Minneapolis Center
Sat 03:09:25 PM 44.5136 -93.5342 215° Southwest 343 395 14,300 2,710 Climbing Minneapolis Center
Sat 03:10:27 PM 44.4231 -93.5978 207° Southwest 366 421 17,200 2,710 Climbing Minneapolis Center
Sat 03:11:29 PM 44.3008 -93.6456 196° South 378 435 19,900 2,419 Climbing Minneapolis Center
Sat 03:12:31 PM 44.1928 -93.6883 196° South 397 457 22,200 2,074 Climbing Minneapolis Center
Sat 03:13:45 PM 44.0581 -93.7417 196° South 420 483 24,600 1,853 Climbing Minneapolis Center
Sat 03:14:47 PM 43.9408 -93.7881 196° South 434 499 26,400 1,694 Climbing Minneapolis Center
Sat 03:15:49 PM 43.8203 -93.8342 195° South 447 514 28,100 1,561 Climbing Minneapolis Center
Sat 03:16:50 PM 43.6978 -93.8811 195° South 456 525 29,600 1,561 Climbing Minneapolis Center
Sat 03:17:52 PM 43.5469 -93.9397 196° South 468 539 31,300 1,645 Climbing Minneapolis Center
Sat 03:18:54 PM 43.4375 -93.9825 196° South 472 543 33,000 1,597 Climbing Minneapolis Center
Sat 03:19:56 PM 43.3133 -94.0306 196° South 470 541 34,600 1,452 Climbing Minneapolis Center
Sat 03:20:58 PM 43.1661 -94.0856 195° South 465 535 36,000 618 Climbing Minneapolis Center
Sat 03:22:12 PM 43.0189 -94.1417 196° South 462 532 36,000  Level Minneapolis Center
Sat 03:23:13 PM 42.8997 -94.1875 196° South 454 522 36,000  Level Minneapolis Center
Sat 03:24:15 PM 42.7783 -94.2333 195° South 455 524 36,000  Level Minneapolis Center
Sat 03:25:17 PM 42.6581 -94.2803 196° South 456 525 36,000  Level Minneapolis Center
Sat 03:26:19 PM 42.5153 -94.3383 197° South 453 521 36,000  Level Minneapolis Center
Sat 03:27:20 PM 42.3844 -94.3906 196° South 463 533 36,000  Level Minneapolis Center
Sat 03:28:22 PM 42.2625 -94.4425 197° South 459 528 36,000  Level Minneapolis Center
Sat 03:29:24 PM 42.1406 -94.4939 197° South 458 527 36,000  Level Minneapolis Center
Sat 03:30:26 PM 42.0181 -94.5447 197° South 460 529 36,000 -145 Level Minneapolis Center
Sat 03:31:28 PM 41.8939 -94.5956 197° South 464 534 35,700 -581 Descending Minneapolis Center
Sat 03:32:30 PM 41.7706 -94.6472 197° South 464 534 34,800 -927 Descending Minneapolis Center
Sat 03:33:31 PM 41.6461 -94.7000 198° South 466 536 33,800 -1,073 Descending Minneapolis Center
Sat 03:34:33 PM 41.4989 -94.7608 197° South 461 531 32,600 -1,016 Descending Minneapolis Center
Sat 03:35:35 PM 41.3731 -94.8125 197° South 467 537 31,700 -919 Descending Minneapolis Center
Sat 03:36:37 PM 41.2478 -94.8639 197° South 467 537 30,700 -919 Descending Minneapolis Center
Sat 03:37:39 PM 41.1192 -94.9158 197° South 473 544 29,800 -927 Descending Minneapolis Center
Sat 03:38:40 PM 40.9894 -94.9686 197° South 480 552 28,800 -971 Descending Minneapolis Center
Sat 03:39:55 PM 40.8333 -95.0317 197° South 484 557 27,600 -971 Descending Minneapolis Center
Sat 03:40:56 PM 40.7047 -95.0833 197° South 483 556 26,600 -1,024 Descending Minneapolis Center
Sat 03:41:58 PM 40.5789 -95.1353 197° South 478 550 25,500 -1,597 Descending Minneapolis Center
Sat 03:43:00 PM 40.4386 -95.1917 197° South 450 518 23,300 -2,081 Descending Minneapolis Center
Sat 03:44:02 PM 40.3256 -95.2358 197° South 433 498 21,200 -1,984 Descending Minneapolis Center
Sat 03:45:04 PM 40.2161 -95.2797 197° South 418 481 19,200 -1,984 Descending Minneapolis Center
Sat 03:46:06 PM 40.1111 -95.3219 197° South 403 464 17,100 -2,073 Descending Minneapolis Center
Sat 03:46:54 PM 40.0244 -95.3525 195° South 385 443 15,400 -1,745 Descending Kansas City Center
Sat 03:47:56 PM 39.9339 -95.3908 198° South 362 417 13,900 -1,610 Descending Kansas City Center
Sat 03:48:57 PM 39.8375 -95.4058 187° South 320 368 12,100 -1,659 Descending Kansas City Center
Sat 03:49:59 PM 39.7719 -95.3403 142° Southeast 309 356 10,500 -1,016 Descending Kansas City Center
Sat 03:51:01 PM 39.7011 -95.2672 142° Southeast 290 334 10,000 -242 Descending Kansas City Center
Sat 03:52:03 PM 39.6544 -95.1981 131° Southeast 271 312 10,000 -537 Level Kansas City Center
Sat 03:53:04 PM 39.6222 -95.1100 115° Southeast 278 320 8,900 -1,317 Descending Kansas City Center
Sat 03:54:06 PM 39.5742 -95.0117 122° Southeast 284 327 7,300 -1,597 Descending Kansas City Center
Sat 03:55:08 PM 39.5356 -94.9306 122° Southeast 277 319 5,600 -1,645 Descending Kansas City Center
Sat 03:56:10 PM 39.4903 -94.8383 122° Southeast 271 312 3,900 -1,403 Descending Kansas City Center
Sat 03:57:12 PM 39.4447 -94.7658 129° Southeast 270 311 2,700 -634 Descending Kansas City Center
Sat 03:58:13 PM 39.4042 -94.7025 130° Southeast 236 272 2,600 -488 Descending Kansas City Center
Sat 03:59:15 PM 39.3553 -94.7114 188° South 162 186 1,700 -810 Descending Kansas City Center
Sat 04:00:19 PM 39.3164 -94.7225 192° South 144 166 900 -750 Descending Kansas City Center

Login

Don't have an account? Register now (free) for customized features, flight alerts, and more!